createdAt,value
2024-03-25T00:00:47.823Z,6.35
2024-03-25T00:03:38.254Z,6.39
2024-03-25T00:06:10.589Z,6.39
2024-03-25T00:08:40.925Z,6.39
2024-03-25T00:11:11.364Z,6.41
2024-03-25T00:13:41.839Z,6.45
2024-03-25T00:16:12.392Z,6.48
2024-03-25T00:18:42.807Z,6.48
2024-03-25T00:21:13.131Z,6.48
2024-03-25T00:23:43.620Z,6.44
2024-03-25T00:26:14.010Z,6.43
2024-03-25T00:28:44.627Z,6.41
2024-03-25T00:31:15.021Z,6.44
2024-03-25T00:33:45.288Z,6.46
2024-03-25T00:36:16.288Z,6.47
2024-03-25T00:38:46.663Z,6.47
2024-03-25T00:41:17.317Z,6.49
2024-03-25T00:43:47.762Z,6.51
2024-03-25T00:46:18.140Z,6.49
2024-03-25T00:48:48.676Z,6.44
2024-03-25T00:51:19.245Z,6.45
2024-03-25T00:53:49.870Z,6.45
2024-03-25T00:56:20.343Z,6.46
2024-03-25T00:58:51.443Z,6.45
2024-03-25T01:01:20.263Z,6.45
2024-03-25T01:03:50.509Z,6.42
2024-03-25T01:06:20.876Z,6.40
2024-03-25T01:08:51.835Z,6.39
2024-03-25T01:11:22.251Z,6.37
2024-03-25T01:13:52.701Z,6.34
2024-03-25T01:16:23.159Z,6.33
2024-03-25T01:18:53.412Z,6.32
2024-03-25T01:21:23.674Z,6.34
2024-03-25T01:23:54.598Z,6.37
2024-03-25T01:26:25.197Z,6.34
2024-03-25T01:28:55.596Z,6.37
2024-03-25T01:31:26.125Z,6.38
2024-03-25T01:33:56.579Z,6.39
2024-03-25T01:36:27.481Z,6.40
2024-03-25T01:38:57.946Z,6.40
2024-03-25T01:41:29.329Z,6.42
2024-03-25T01:43:59.531Z,6.45
2024-03-25T01:46:30.660Z,6.50
2024-03-25T01:48:59.450Z,6.54
2024-03-25T01:51:30.633Z,6.55
2024-03-25T01:54:05.079Z,6.57
2024-03-25T01:56:37.646Z,6.61
2024-03-25T01:59:08.033Z,6.62
2024-03-25T02:01:38.556Z,6.60
2024-03-25T02:04:09.088Z,6.60
2024-03-25T02:06:41.114Z,6.62
2024-03-25T02:09:13.344Z,6.62
2024-03-25T02:11:44.516Z,6.59
2024-03-25T02:14:15.201Z,6.56
2024-03-25T02:16:45.594Z,6.56
2024-03-25T02:19:16.714Z,6.59
2024-03-25T02:21:47.851Z,6.60
2024-03-25T02:24:16.673Z,6.62
2024-03-25T02:26:47.222Z,6.63
2024-03-25T02:29:17.657Z,6.60
2024-03-25T02:31:50.405Z,6.56
2024-03-25T02:34:31.958Z,6.51
2024-03-25T02:37:22.641Z,6.51
2024-03-25T02:39:54.154Z,6.54
2024-03-25T02:42:26.542Z,6.57
2024-03-25T02:44:57.940Z,6.59
2024-03-25T02:47:28.675Z,6.59
2024-03-25T02:49:58.955Z,6.57
2024-03-25T02:52:30.306Z,6.57
2024-03-25T02:55:01.394Z,6.58
2024-03-25T02:57:30.174Z,6.59
2024-03-25T03:00:00.654Z,6.58
2024-03-25T03:02:31.104Z,6.57
2024-03-25T03:05:01.407Z,6.59
2024-03-25T03:07:31.728Z,6.59
2024-03-25T03:10:02.588Z,6.57
2024-03-25T03:12:33.093Z,6.52
2024-03-25T03:15:03.818Z,6.44
2024-03-25T03:17:34.134Z,6.39
2024-03-25T03:20:04.875Z,6.40
2024-03-25T03:22:36.227Z,6.40
2024-03-25T03:25:11.150Z,6.39
2024-03-25T03:27:41.493Z,6.40
2024-03-25T03:30:14.103Z,6.41
2024-03-25T03:32:44.386Z,6.43
2024-03-25T03:35:15.801Z,6.45
2024-03-25T03:37:46.278Z,6.45
2024-03-25T03:40:16.849Z,6.45
2024-03-25T03:42:47.218Z,6.45
2024-03-25T03:45:18.418Z,6.46
2024-03-25T03:47:48.985Z,6.46
2024-03-25T03:50:19.461Z,6.47
2024-03-25T03:52:49.783Z,6.50
2024-03-25T03:55:20.257Z,6.49
2024-03-25T03:57:50.629Z,6.49
2024-03-25T04:00:21.142Z,6.49
2024-03-25T04:02:51.891Z,6.48
2024-03-25T04:05:29.456Z,6.47
2024-03-25T04:07:59.883Z,6.44
2024-03-25T04:10:30.313Z,6.39
2024-03-25T04:13:00.670Z,6.35
2024-03-25T04:15:33.518Z,6.35
2024-03-25T04:18:04.367Z,6.36
2024-03-25T04:20:39.540Z,6.37
2024-03-25T04:23:10.229Z,6.38
2024-03-25T04:25:40.652Z,6.40
2024-03-25T04:28:11.169Z,6.43
2024-03-25T04:30:41.473Z,6.45
2024-03-25T04:33:12.002Z,6.46
2024-03-25T04:35:42.519Z,6.47
2024-03-25T04:38:13.061Z,6.45
2024-03-25T04:40:43.290Z,6.44
2024-03-25T04:43:13.630Z,6.45
2024-03-25T04:45:44.141Z,6.46
2024-03-25T04:48:14.493Z,6.44
2024-03-25T04:50:44.970Z,6.44
2024-03-25T04:53:15.329Z,6.46
2024-03-25T04:55:45.765Z,6.43
2024-03-25T04:58:16.144Z,6.41
2024-03-25T05:00:46.466Z,6.43
2024-03-25T05:03:16.987Z,6.43
2024-03-25T05:05:49.426Z,6.41
2024-03-25T05:08:20.210Z,6.39
2024-03-25T05:10:50.611Z,6.36
2024-03-25T05:13:20.967Z,6.33
2024-03-25T05:15:54.598Z,6.32
2024-03-25T05:18:24.826Z,6.29
2024-03-25T05:20:55.395Z,6.32
2024-03-25T05:23:25.721Z,6.36
2024-03-25T05:25:56.236Z,6.34
2024-03-25T05:28:26.772Z,6.35
2024-03-25T05:30:57.251Z,6.39
2024-03-25T05:33:27.621Z,6.39
2024-03-25T05:35:58.025Z,6.43
2024-03-25T05:38:28.665Z,6.49
2024-03-25T05:40:59.014Z,6.57
2024-03-25T05:43:29.625Z,6.63
2024-03-25T05:45:59.929Z,6.67
2024-03-25T05:48:30.379Z,6.67
2024-03-25T05:51:03.420Z,6.65
2024-03-25T05:53:34.602Z,6.67
2024-03-25T05:56:06.513Z,6.69
2024-03-25T05:58:37.624Z,6.72
2024-03-25T06:01:06.574Z,6.69
2024-03-25T06:03:36.860Z,6.69
2024-03-25T06:06:07.265Z,6.70
2024-03-25T06:08:37.470Z,6.72
2024-03-25T06:11:07.900Z,6.75
2024-03-25T06:13:38.144Z,6.77
2024-03-25T06:16:10.065Z,6.79
2024-03-25T06:18:40.622Z,6.79
2024-03-25T06:21:11.029Z,6.79
2024-03-25T06:23:41.625Z,6.78
2024-03-25T06:26:12.143Z,6.79
2024-03-25T06:28:42.502Z,6.86
2024-03-25T06:31:12.945Z,6.91
2024-03-25T06:33:43.322Z,6.94
2024-03-25T06:36:13.819Z,6.95
2024-03-25T06:38:44.482Z,6.97
2024-03-25T06:41:14.939Z,7.01
2024-03-25T06:43:45.277Z,7.07
2024-03-25T06:46:15.545Z,7.14
2024-03-25T06:48:45.979Z,7.20
2024-03-25T06:51:16.412Z,7.26
2024-03-25T06:53:46.793Z,7.27
2024-03-25T06:56:17.395Z,7.23
2024-03-25T06:58:47.667Z,7.24
2024-03-25T07:01:18.255Z,7.25
2024-03-25T07:03:49.051Z,7.26
2024-03-25T07:06:19.769Z,7.23
2024-03-25T07:08:50.197Z,7.25
2024-03-25T07:11:20.823Z,7.27
2024-03-25T07:13:50.219Z,7.34
2024-03-25T07:16:20.492Z,7.42
2024-03-25T07:18:50.906Z,7.48
2024-03-25T07:21:21.418Z,7.59
2024-03-25T07:23:52.050Z,7.67
2024-03-25T07:26:22.695Z,7.70
2024-03-25T07:28:52.936Z,7.74
2024-03-25T07:31:23.313Z,7.80
2024-03-25T07:33:53.750Z,7.84
2024-03-25T07:36:24.405Z,7.85
2024-03-25T07:38:54.860Z,7.81
2024-03-25T07:41:25.980Z,7.74
2024-03-25T07:43:57.138Z,7.77
2024-03-25T07:46:28.269Z,7.86
2024-03-25T07:48:58.680Z,7.94
2024-03-25T07:51:30.883Z,8.08
2024-03-25T07:54:01.478Z,8.22
2024-03-25T07:56:33.034Z,8.35
2024-03-25T07:59:03.730Z,8.45
2024-03-25T08:01:34.291Z,8.44
2024-03-25T08:04:04.981Z,8.40
2024-03-25T08:06:35.523Z,8.36
2024-03-25T08:09:05.920Z,8.40
2024-03-25T08:11:36.341Z,8.46
2024-03-25T08:14:07.118Z,8.48
2024-03-25T08:16:38.339Z,8.43
2024-03-25T08:19:08.719Z,8.35
2024-03-25T08:21:39.072Z,8.31
2024-03-25T08:24:09.580Z,8.27
2024-03-25T08:26:40.075Z,8.32
2024-03-25T08:29:10.595Z,8.41
2024-03-25T08:31:41.101Z,8.54
2024-03-25T08:34:11.748Z,8.61
2024-03-25T08:36:42.091Z,8.62
2024-03-25T08:39:12.950Z,8.57
2024-03-25T08:41:41.982Z,8.52
2024-03-25T08:44:12.547Z,8.66
2024-03-25T08:46:42.790Z,8.88
2024-03-25T08:49:13.252Z,9.13
2024-03-25T08:51:43.602Z,9.34
2024-03-25T08:54:13.835Z,9.62
2024-03-25T08:56:44.717Z,9.72
2024-03-25T08:59:16.392Z,9.88
2024-03-25T09:01:46.780Z,10.09
2024-03-25T09:04:27.612Z,10.43
2024-03-25T09:06:58.924Z,10.57
2024-03-25T09:09:29.474Z,10.66
2024-03-25T09:11:59.925Z,10.76
2024-03-25T09:14:30.543Z,10.71
2024-03-25T09:17:00.879Z,10.51
2024-03-25T09:19:31.425Z,10.42
2024-03-25T09:22:01.888Z,10.58
2024-03-25T09:24:33.894Z,10.80
2024-03-25T09:27:04.571Z,10.86
2024-03-25T09:29:34.953Z,10.91
2024-03-25T09:32:07.356Z,10.93
2024-03-25T09:34:37.610Z,10.89
2024-03-25T09:37:08.188Z,10.85
2024-03-25T09:39:38.450Z,10.84
2024-03-25T09:42:15.236Z,10.95
2024-03-25T09:44:45.958Z,10.97
2024-03-25T09:47:17.138Z,10.98
2024-03-25T09:49:48.706Z,11.03
2024-03-25T09:52:19.704Z,11.05
2024-03-25T09:54:48.612Z,11.09
2024-03-25T09:57:19.495Z,11.06
2024-03-25T09:59:50.308Z,11.01
2024-03-25T10:02:19.701Z,10.82
2024-03-25T10:04:50.908Z,10.55
2024-03-25T10:07:26.111Z,10.39
2024-03-25T10:09:57.201Z,10.34
2024-03-25T10:12:26.165Z,10.28
2024-03-25T10:14:56.612Z,10.28
2024-03-25T10:17:27.120Z,10.34
2024-03-25T10:19:57.367Z,10.31
2024-03-25T10:22:28.062Z,10.22
2024-03-25T10:24:58.505Z,10.12
2024-03-25T10:27:29.208Z,10.13
2024-03-25T10:30:00.742Z,10.23
2024-03-25T10:32:34.294Z,10.44
2024-03-25T10:35:07.120Z,10.67
2024-03-25T10:37:39.563Z,10.81
2024-03-25T10:40:12.673Z,10.91
2024-03-25T10:42:45.355Z,10.97
2024-03-25T10:45:16.267Z,10.95
2024-03-25T10:47:46.842Z,10.78
2024-03-25T10:50:20.420Z,10.60
2024-03-25T10:52:52.152Z,10.46
2024-03-25T10:55:23.000Z,10.45
2024-03-25T10:57:54.989Z,10.51
2024-03-25T11:00:26.035Z,10.67
2024-03-25T11:02:57.005Z,10.84
2024-03-25T11:05:27.472Z,11.03
2024-03-25T11:07:58.182Z,11.19
2024-03-25T11:10:32.584Z,11.17
2024-03-25T11:13:03.121Z,11.16
2024-03-25T11:15:41.191Z,11.08
2024-03-25T11:18:14.928Z,11.03
2024-03-25T11:20:46.297Z,10.90
2024-03-25T11:23:18.557Z,10.73
2024-03-25T11:25:57.215Z,10.60
2024-03-25T11:28:31.245Z,10.44
2024-03-25T11:31:01.627Z,10.31
2024-03-25T11:33:32.661Z,10.32
2024-03-25T11:36:03.115Z,10.47
2024-03-25T11:38:33.467Z,10.71
2024-03-25T11:41:04.422Z,10.97
2024-03-25T11:43:33.474Z,11.16
2024-03-25T11:46:04.169Z,11.27
2024-03-25T11:48:34.858Z,11.38
2024-03-25T11:51:06.045Z,11.43
2024-03-25T11:53:36.419Z,11.42
2024-03-25T11:56:08.203Z,11.44
2024-03-25T11:58:38.713Z,11.57
2024-03-25T12:01:09.338Z,11.67
2024-03-25T12:03:42.792Z,11.72
2024-03-25T12:06:13.385Z,11.71
2024-03-25T12:08:44.556Z,11.68
2024-03-25T12:11:15.219Z,11.69
2024-03-25T12:13:46.467Z,11.73
2024-03-25T12:16:17.069Z,11.75
2024-03-25T12:18:47.773Z,11.71
2024-03-25T12:21:18.453Z,11.63
2024-03-25T12:23:49.900Z,11.56
2024-03-25T12:26:20.292Z,11.60
2024-03-25T12:28:50.719Z,11.72
2024-03-25T12:31:24.197Z,11.82
2024-03-25T12:33:54.600Z,11.89
2024-03-25T12:36:25.636Z,11.95
2024-03-25T12:38:59.849Z,12.13
2024-03-25T12:41:30.303Z,12.33
2024-03-25T12:44:01.503Z,12.41
2024-03-25T12:46:32.038Z,12.25
2024-03-25T12:49:03.962Z,11.78
2024-03-25T12:51:34.399Z,11.05
2024-03-25T12:54:04.866Z,10.28
2024-03-25T12:56:35.421Z,9.68
2024-03-25T12:59:06.475Z,9.28
2024-03-25T13:01:35.336Z,9.04
2024-03-25T13:04:07.454Z,8.94
2024-03-25T13:06:37.961Z,8.92
2024-03-25T13:09:08.279Z,8.81
2024-03-25T13:11:38.767Z,8.69
2024-03-25T13:14:09.040Z,8.75
2024-03-25T13:16:39.413Z,8.87
2024-03-25T13:19:10.825Z,9.04
2024-03-25T13:21:41.430Z,9.15
2024-03-25T13:24:12.048Z,9.25
2024-03-25T13:26:42.294Z,9.18
2024-03-25T13:29:12.556Z,9.07
2024-03-25T13:31:42.954Z,8.94
2024-03-25T13:34:13.449Z,8.85
2024-03-25T13:36:43.838Z,8.79
2024-03-25T13:39:14.985Z,8.71
2024-03-25T13:41:43.812Z,8.68
2024-03-25T13:44:14.187Z,8.65
2024-03-25T13:46:44.630Z,8.57
2024-03-25T13:49:14.989Z,8.50
2024-03-25T13:51:45.191Z,8.42
2024-03-25T13:54:15.589Z,8.35
2024-03-25T13:56:46.109Z,8.22
2024-03-25T13:59:16.682Z,8.04
2024-03-25T14:01:47.408Z,7.90
2024-03-25T14:04:17.727Z,7.69
2024-03-25T14:06:48.107Z,7.49
2024-03-25T14:09:27.983Z,7.42
2024-03-25T14:11:58.615Z,7.31
2024-03-25T14:14:28.960Z,7.20
2024-03-25T14:17:00.155Z,7.17
2024-03-25T14:19:30.404Z,7.23
2024-03-25T14:22:00.828Z,7.37
2024-03-25T14:24:30.600Z,7.54
2024-03-25T14:27:01.008Z,7.69
2024-03-25T14:29:31.496Z,7.84
2024-03-25T14:32:01.919Z,8.00
2024-03-25T14:34:32.283Z,8.20
2024-03-25T14:37:02.749Z,8.38
2024-03-25T14:39:33.073Z,8.54
2024-03-25T14:42:03.831Z,8.67
2024-03-25T14:44:34.573Z,8.77
2024-03-25T14:47:07.209Z,8.85
2024-03-25T14:49:37.761Z,8.95
2024-03-25T14:52:08.061Z,9.09
2024-03-25T14:54:40.615Z,9.23
2024-03-25T14:57:11.053Z,9.32
2024-03-25T14:59:41.536Z,9.45
2024-03-25T15:02:13.607Z,9.66
2024-03-25T15:04:44.393Z,9.86
2024-03-25T15:07:15.173Z,9.92
2024-03-25T15:09:48.368Z,9.86
2024-03-25T15:12:22.596Z,9.84
2024-03-25T15:14:53.338Z,9.78
2024-03-25T15:17:24.078Z,9.59
2024-03-25T15:19:54.726Z,9.44
2024-03-25T15:22:25.225Z,9.39
2024-03-25T15:24:54.484Z,9.36
2024-03-25T15:27:38.905Z,9.26
2024-03-25T15:30:12.023Z,9.17
2024-03-25T15:32:42.911Z,9.11
2024-03-25T15:35:13.523Z,9.11
2024-03-25T15:37:43.986Z,9.11
2024-03-25T15:40:23.134Z,9.09
2024-03-25T15:42:53.402Z,9.06
2024-03-25T15:45:27.242Z,9.00
2024-03-25T15:47:58.014Z,8.95
2024-03-25T15:50:28.285Z,8.95
2024-03-25T15:53:05.110Z,8.95
2024-03-25T15:55:36.332Z,9.01
2024-03-25T15:58:07.512Z,9.11
2024-03-25T16:00:38.445Z,9.17
2024-03-25T16:03:09.933Z,9.22
2024-03-25T16:05:48.140Z,9.19
2024-03-25T16:08:18.592Z,9.08
2024-03-25T16:10:49.378Z,8.89
2024-03-25T16:13:20.046Z,8.74
2024-03-25T16:16:05.129Z,8.60
2024-03-25T16:18:36.489Z,8.46
2024-03-25T16:21:15.806Z,8.34
2024-03-25T16:23:46.688Z,8.18
2024-03-25T16:26:17.038Z,8.07
2024-03-25T16:28:47.378Z,7.94
2024-03-25T16:31:17.832Z,7.81
2024-03-25T16:33:48.630Z,7.65
2024-03-25T16:36:19.767Z,7.47
2024-03-25T16:38:50.331Z,7.35
2024-03-25T16:41:20.911Z,7.26
2024-03-25T16:43:51.328Z,7.20
2024-03-25T16:46:22.076Z,7.15
2024-03-25T16:48:52.618Z,7.09
2024-03-25T16:51:23.837Z,7.05
2024-03-25T16:53:54.263Z,7.02
2024-03-25T16:56:24.653Z,6.94
2024-03-25T16:58:55.813Z,6.87
2024-03-25T17:01:26.541Z,6.79
2024-03-25T17:03:57.134Z,6.72
2024-03-25T17:06:27.541Z,6.65
2024-03-25T17:08:58.164Z,6.64
2024-03-25T17:11:27.451Z,6.65
2024-03-25T17:13:57.952Z,6.59
2024-03-25T17:16:28.611Z,6.55
2024-03-25T17:18:58.927Z,6.57
2024-03-25T17:21:30.031Z,6.60
2024-03-25T17:23:58.868Z,6.63
2024-03-25T17:26:29.291Z,6.68
2024-03-25T17:28:59.590Z,6.73
2024-03-25T17:31:29.831Z,6.79
2024-03-25T17:34:00.922Z,6.81
2024-03-25T17:36:29.816Z,6.79
2024-03-25T17:39:00.357Z,6.80
2024-03-25T17:41:30.736Z,6.84
2024-03-25T17:44:01.200Z,6.87
2024-03-25T17:46:31.623Z,6.85
2024-03-25T17:49:02.162Z,6.85
2024-03-25T17:51:32.607Z,6.88
2024-03-25T17:54:03.090Z,6.91
2024-03-25T17:56:33.535Z,6.92
2024-03-25T17:59:03.796Z,6.90
2024-03-25T18:01:34.271Z,6.88
2024-03-25T18:04:06.647Z,6.84
2024-03-25T18:06:37.227Z,6.78
2024-03-25T18:09:07.884Z,6.73
2024-03-25T18:11:48.137Z,6.71
2024-03-25T18:14:18.700Z,6.66
2024-03-25T18:16:52.456Z,6.64
2024-03-25T18:19:23.030Z,6.65
2024-03-25T18:21:53.458Z,6.63
2024-03-25T18:24:33.098Z,6.60
2024-03-25T18:27:08.269Z,6.52
2024-03-25T18:29:38.577Z,6.48
2024-03-25T18:32:09.409Z,6.43
2024-03-25T18:34:40.372Z,6.39
2024-03-25T18:37:11.332Z,6.34
2024-03-25T18:39:42.151Z,6.32
2024-03-25T18:42:12.718Z,6.28
2024-03-25T18:44:43.236Z,6.21
2024-03-25T18:47:13.956Z,6.15
2024-03-25T18:49:44.297Z,6.13
2024-03-25T18:52:16.056Z,6.11
2024-03-25T18:54:46.487Z,6.08
2024-03-25T18:57:17.073Z,6.03
2024-03-25T18:59:47.526Z,5.98
2024-03-25T19:02:18.193Z,5.96
2024-03-25T19:04:49.053Z,5.93
2024-03-25T19:07:19.438Z,5.90
2024-03-25T19:09:49.885Z,5.83
2024-03-25T19:12:20.189Z,5.81
2024-03-25T19:14:52.911Z,5.80
2024-03-25T19:17:23.340Z,5.78
2024-03-25T19:19:53.889Z,5.77
2024-03-25T19:22:24.602Z,5.76
2024-03-25T19:24:55.058Z,5.75
2024-03-25T19:27:25.779Z,5.74
2024-03-25T19:29:56.256Z,5.71
2024-03-25T19:32:26.652Z,5.69
2024-03-25T19:34:56.923Z,5.65
2024-03-25T19:37:27.387Z,5.58
2024-03-25T19:39:57.890Z,5.52
2024-03-25T19:42:28.187Z,5.49
2024-03-25T19:44:58.768Z,5.47
2024-03-25T19:47:29.259Z,5.46
2024-03-25T19:49:59.794Z,5.40
2024-03-25T19:52:30.204Z,5.36
2024-03-25T19:55:01.004Z,5.31
2024-03-25T19:57:31.559Z,5.28
2024-03-25T20:00:01.760Z,5.26
2024-03-25T20:02:32.109Z,5.25
2024-03-25T20:05:02.831Z,5.24
2024-03-25T20:07:33.303Z,5.23
2024-03-25T20:10:03.849Z,5.23
2024-03-25T20:12:33.035Z,5.21
2024-03-25T20:15:03.732Z,5.20
2024-03-25T20:17:34.159Z,5.18
2024-03-25T20:20:06.959Z,5.15
2024-03-25T20:22:37.394Z,5.13
2024-03-25T20:25:10.107Z,5.11
2024-03-25T20:27:40.658Z,5.10
2024-03-25T20:30:12.764Z,5.09
2024-03-25T20:32:43.015Z,5.05
2024-03-25T20:35:13.273Z,5.04
2024-03-25T20:37:43.759Z,5.04
2024-03-25T20:40:15.199Z,5.02
2024-03-25T20:42:46.931Z,5.01
2024-03-25T20:45:17.510Z,4.99
2024-03-25T20:47:47.909Z,4.96
2024-03-25T20:50:18.384Z,4.95
2024-03-25T20:52:48.787Z,4.94
2024-03-25T20:55:19.254Z,4.92
2024-03-25T20:57:49.587Z,4.90
2024-03-25T21:00:21.251Z,4.88
2024-03-25T21:02:51.526Z,4.87
2024-03-25T21:05:21.817Z,4.83
2024-03-25T21:07:52.179Z,4.80
2024-03-25T21:10:22.548Z,4.78
2024-03-25T21:12:53.091Z,4.75
2024-03-25T21:15:23.745Z,4.71
2024-03-25T21:17:54.034Z,4.68
2024-03-25T21:20:24.714Z,4.66
2024-03-25T21:22:55.222Z,4.62
2024-03-25T21:25:25.750Z,4.57
2024-03-25T21:27:56.275Z,4.53
2024-03-25T21:30:27.240Z,4.50
2024-03-25T21:32:56.193Z,4.48
2024-03-25T21:35:33.676Z,4.43
2024-03-25T21:38:07.359Z,4.38
2024-03-25T21:40:37.748Z,4.34
2024-03-25T21:43:08.352Z,4.31
2024-03-25T21:45:38.742Z,4.27
2024-03-25T21:48:10.399Z,4.22
2024-03-25T21:50:40.801Z,4.09
2024-03-25T21:53:11.034Z,3.93
2024-03-25T21:55:41.479Z,3.90
2024-03-25T21:58:11.951Z,3.92
2024-03-25T22:00:43.434Z,3.92
2024-03-25T22:03:17.382Z,3.91
2024-03-25T22:05:47.869Z,3.94
2024-03-25T22:08:18.762Z,3.96
2024-03-25T22:10:49.303Z,3.96
2024-03-25T22:13:19.784Z,3.96
2024-03-25T22:15:59.840Z,3.94
2024-03-25T22:18:30.279Z,3.95
2024-03-25T22:21:03.594Z,3.93
2024-03-25T22:23:34.247Z,3.93
2024-03-25T22:26:04.819Z,3.92
2024-03-25T22:28:35.714Z,3.95
2024-03-25T22:31:06.225Z,3.97
2024-03-25T22:33:36.583Z,3.98
2024-03-25T22:36:08.300Z,3.95
2024-03-25T22:38:40.584Z,4.00
2024-03-25T22:41:11.479Z,4.02
2024-03-25T22:43:42.015Z,4.02
2024-03-25T22:46:12.293Z,4.06
2024-03-25T22:48:42.918Z,4.02
2024-03-25T22:51:15.100Z,4.01
2024-03-25T22:53:56.928Z,4.02
2024-03-25T22:56:27.814Z,3.97
2024-03-25T22:58:58.196Z,3.93
2024-03-25T23:02:52.750Z,3.96
2024-03-25T23:05:29.369Z,3.96
2024-03-25T23:07:59.724Z,3.98
2024-03-25T23:10:30.232Z,3.99
2024-03-25T23:13:00.521Z,4.01
2024-03-25T23:15:30.914Z,4.00
2024-03-25T23:18:01.327Z,3.94
2024-03-25T23:20:35.691Z,3.90
2024-03-25T23:23:06.480Z,3.91
2024-03-25T23:25:36.708Z,3.91
2024-03-25T23:28:09.180Z,3.95
2024-03-25T23:30:40.583Z,3.98
2024-03-25T23:33:11.070Z,4.00
2024-03-25T23:35:41.511Z,3.98
2024-03-25T23:38:12.231Z,3.95
2024-03-25T23:40:42.686Z,3.92
2024-03-25T23:43:13.062Z,3.88
2024-03-25T23:45:44.882Z,3.87
2024-03-25T23:48:15.277Z,3.87
2024-03-25T23:50:45.866Z,3.83
2024-03-25T23:53:16.592Z,3.74
2024-03-25T23:55:47.223Z,3.61
2024-03-25T23:58:17.766Z,3.49
